createdAt,value
2023-06-16T00:00:12.829Z,10.42
2023-06-16T00:01:56.835Z,10.36
2023-06-16T00:03:45.958Z,10.66
2023-06-16T00:05:25.549Z,10.27
2023-06-16T00:06:59.371Z,10.30
2023-06-16T00:08:33.146Z,10.42
2023-06-16T00:09:56.809Z,10.35
2023-06-16T00:11:37.911Z,10.08
2023-06-16T00:13:28.303Z,10.26
2023-06-16T00:15:14.532Z,10.44
2023-06-16T00:17:00.508Z,10.88
2023-06-16T00:18:29.710Z,10.91
2023-06-16T00:20:03.216Z,10.52
2023-06-16T00:21:47.218Z,10.55
2023-06-16T00:23:23.976Z,11.39
2023-06-16T00:25:08.937Z,12.14
2023-06-16T00:26:50.918Z,11.31
2023-06-16T00:28:15.511Z,12.15
2023-06-16T00:29:48.731Z,12.04
2023-06-16T00:31:34.424Z,12.33
2023-06-16T00:33:08.223Z,11.86
2023-06-16T00:34:44.146Z,12.25
2023-06-16T00:36:29.704Z,12.40
2023-06-16T00:37:59.417Z,11.94
2023-06-16T00:39:21.268Z,12.62
2023-06-16T00:40:45.330Z,12.28
2023-06-16T00:42:19.354Z,12.96
2023-06-16T00:43:55.103Z,12.62
2023-06-16T00:45:31.411Z,13.41
2023-06-16T00:47:18.492Z,14.45
2023-06-16T00:48:50.720Z,19.57
2023-06-16T00:50:12.697Z,24.20
2023-06-16T00:51:45.910Z,23.93
2023-06-16T00:53:22.291Z,22.91
2023-06-16T00:55:03.405Z,22.39
2023-06-16T00:56:38.389Z,24.65
2023-06-16T00:58:19.724Z,22.29
2023-06-16T01:00:05.353Z,21.22
2023-06-16T01:01:29.387Z,21.07
2023-06-16T01:03:23.643Z,23.79
2023-06-16T01:04:47.518Z,26.50
2023-06-16T01:06:22.575Z,29.54
2023-06-16T01:08:12.006Z,27.37
2023-06-16T01:10:05.435Z,26.70
2023-06-16T01:11:41.321Z,27.04
2023-06-16T01:13:14.982Z,26.42
2023-06-16T01:15:01.436Z,27.11
2023-06-16T01:16:36.501Z,26.84
2023-06-16T01:18:21.914Z,25.91
2023-06-16T01:19:57.554Z,24.89
2023-06-16T01:21:43.897Z,25.55
2023-06-16T01:23:29.430Z,24.78
2023-06-16T01:25:17.322Z,24.59
2023-06-16T01:26:58.930Z,26.39
2023-06-16T01:28:32.950Z,25.09
2023-06-16T01:30:20.582Z,29.85
2023-06-16T01:32:14.345Z,30.20
2023-06-16T01:33:47.528Z,29.22
2023-06-16T01:35:21.033Z,29.24
2023-06-16T01:36:54.331Z,29.19
2023-06-16T01:38:27.715Z,26.77
2023-06-16T01:40:03.030Z,27.81
2023-06-16T01:41:26.298Z,24.57
2023-06-16T01:42:52.650Z,23.78
2023-06-16T01:44:19.139Z,22.29
2023-06-16T01:46:04.367Z,23.79
2023-06-16T01:47:59.418Z,22.33
2023-06-16T01:49:36.388Z,23.18
2023-06-16T01:51:18.696Z,23.72
2023-06-16T01:52:42.715Z,23.01
2023-06-16T01:54:27.979Z,24.09
2023-06-16T01:56:13.306Z,24.08
2023-06-16T01:57:58.465Z,22.91
2023-06-16T01:59:22.776Z,23.45
2023-06-16T02:01:09.042Z,23.93
2023-06-16T02:02:49.971Z,24.85
2023-06-16T02:04:34.862Z,23.87
2023-06-16T02:06:08.456Z,23.37
2023-06-16T02:07:49.482Z,21.97
2023-06-16T02:09:23.365Z,22.46
2023-06-16T02:10:59.096Z,21.74
2023-06-16T02:12:53.364Z,20.96
2023-06-16T02:14:29.218Z,20.70
2023-06-16T02:16:06.881Z,20.52
2023-06-16T02:17:59.613Z,19.44
2023-06-16T02:19:41.154Z,20.94
2023-06-16T02:21:06.349Z,21.42
2023-06-16T02:22:32.719Z,20.95
2023-06-16T02:23:54.477Z,20.23
2023-06-16T02:25:30.022Z,21.25
2023-06-16T02:27:05.472Z,21.69
2023-06-16T02:28:50.657Z,20.43
2023-06-16T02:30:26.269Z,19.59
2023-06-16T02:31:52.459Z,19.95
2023-06-16T02:33:26.673Z,20.45
2023-06-16T02:35:17.127Z,20.43
2023-06-16T02:36:51.481Z,20.78
2023-06-16T02:38:27.598Z,20.51
2023-06-16T02:40:09.156Z,20.56
2023-06-16T02:41:52.391Z,21.69
2023-06-16T02:43:46.654Z,22.29
2023-06-16T02:45:20.126Z,21.40
2023-06-16T02:46:53.769Z,22.28
2023-06-16T02:48:39.494Z,22.72
2023-06-16T02:50:15.354Z,21.45
2023-06-16T02:51:56.303Z,21.93
2023-06-16T02:53:23.715Z,21.58
2023-06-16T02:54:57.098Z,20.79
2023-06-16T02:56:50.398Z,21.12
2023-06-16T02:58:26.950Z,21.29
2023-06-16T03:00:06.320Z,20.78
2023-06-16T03:01:45.838Z,20.43
2023-06-16T03:03:39.832Z,20.60
2023-06-16T03:05:36.462Z,21.51
2023-06-16T03:07:22.908Z,21.30
2023-06-16T03:08:46.889Z,21.01
2023-06-16T03:10:22.890Z,21.54
2023-06-16T03:12:11.345Z,20.20
2023-06-16T03:14:09.366Z,20.75
2023-06-16T03:15:33.494Z,21.83
2023-06-16T03:17:19.917Z,22.50
2023-06-16T03:18:51.071Z,22.25
2023-06-16T03:20:36.608Z,22.06
2023-06-16T03:22:17.944Z,22.25
2023-06-16T03:23:47.329Z,22.48
2023-06-16T03:25:33.931Z,21.12
2023-06-16T03:27:27.565Z,20.83
2023-06-16T03:31:23.569Z,20.98
2023-06-16T03:32:47.818Z,20.65
2023-06-16T03:34:32.829Z,21.22
2023-06-16T03:36:06.572Z,20.44
2023-06-16T03:37:53.468Z,21.18
2023-06-16T03:39:34.885Z,20.45
2023-06-16T03:41:10.885Z,20.47
2023-06-16T03:42:55.762Z,20.61
2023-06-16T03:44:29.047Z,20.74
2023-06-16T03:46:15.660Z,21.28
2023-06-16T03:47:49.054Z,21.50
2023-06-16T03:49:35.335Z,20.65
2023-06-16T03:54:41.324Z,20.44
2023-06-16T03:56:14.734Z,20.35
2023-06-16T03:57:45.042Z,19.20
2023-06-16T03:59:30.496Z,20.02
2023-06-16T04:01:16.823Z,20.17
2023-06-16T04:03:01.579Z,20.14
2023-06-16T04:04:26.654Z,20.75
2023-06-16T04:06:09.380Z,20.71
2023-06-16T04:07:45.281Z,20.72
2023-06-16T04:09:19.029Z,18.62
2023-06-16T04:10:44.730Z,18.58
2023-06-16T04:12:26.191Z,18.99
2023-06-16T04:14:06.676Z,19.02
2023-06-16T04:15:40.180Z,19.65
2023-06-16T04:17:09.458Z,19.32
2023-06-16T04:18:55.195Z,19.09
2023-06-16T04:20:22.223Z,19.35
2023-06-16T04:21:59.280Z,18.78
2023-06-16T04:23:38.498Z,17.87
2023-06-16T04:25:23.845Z,17.52
2023-06-16T04:27:11.068Z,18.79
2023-06-16T04:28:52.320Z,18.54
2023-06-16T04:30:23.915Z,18.21
2023-06-16T04:32:06.462Z,18.66
2023-06-16T04:33:54.350Z,18.63
2023-06-16T04:35:28.367Z,17.95
2023-06-16T04:37:10.054Z,17.95
2023-06-16T04:38:56.748Z,17.22
2023-06-16T04:40:32.304Z,17.03
2023-06-16T04:42:17.450Z,17.78
2023-06-16T04:43:40.524Z,18.12
2023-06-16T04:45:25.644Z,17.94
2023-06-16T04:47:13.876Z,17.87
2023-06-16T04:48:47.427Z,16.97
2023-06-16T04:50:21.240Z,17.29
2023-06-16T04:51:54.654Z,17.19
2023-06-16T04:53:40.053Z,16.56
2023-06-16T04:55:16.158Z,17.32
2023-06-16T04:56:56.812Z,16.78
2023-06-16T04:58:30.632Z,18.05
2023-06-16T05:00:04.596Z,16.77
2023-06-16T05:01:29.287Z,16.95
2023-06-16T05:02:58.067Z,17.46
2023-06-16T05:04:45.236Z,16.68
2023-06-16T05:06:32.676Z,16.46
2023-06-16T05:08:01.888Z,15.62
2023-06-16T05:09:47.416Z,15.30
2023-06-16T05:11:20.936Z,16.31
2023-06-16T05:12:52.549Z,16.47
2023-06-16T05:14:26.853Z,15.86
2023-06-16T05:16:09.370Z,16.73
2023-06-16T05:17:54.435Z,16.82
2023-06-16T05:19:34.813Z,16.32
2023-06-16T05:21:20.328Z,16.04
2023-06-16T05:23:15.423Z,15.96
2023-06-16T05:24:49.433Z,15.83
2023-06-16T05:26:23.575Z,15.47
2023-06-16T05:27:48.110Z,15.35
2023-06-16T05:29:22.011Z,15.94
2023-06-16T05:30:55.493Z,16.01
2023-06-16T05:32:17.603Z,15.18
2023-06-16T05:34:02.623Z,15.14
2023-06-16T05:35:52.418Z,15.44
2023-06-16T05:37:33.215Z,15.60
2023-06-16T05:39:28.484Z,15.21
2023-06-16T05:41:13.884Z,14.51
2023-06-16T05:42:45.767Z,15.47
2023-06-16T05:44:08.413Z,15.77
2023-06-16T05:45:45.092Z,14.63
2023-06-16T05:47:20.490Z,14.50
2023-06-16T05:49:02.678Z,15.79
2023-06-16T05:50:44.157Z,15.52
2023-06-16T05:52:25.226Z,15.00
2023-06-16T05:53:49.413Z,15.74
2023-06-16T05:55:15.758Z,14.90
2023-06-16T05:56:56.150Z,14.50
2023-06-16T05:58:29.762Z,14.12
2023-06-16T06:00:10.540Z,14.72
2023-06-16T06:01:55.566Z,15.27
2023-06-16T06:03:25.833Z,14.26
2023-06-16T06:04:59.701Z,13.10
2023-06-16T06:06:48.420Z,11.51
2023-06-16T06:08:12.312Z,12.90
2023-06-16T06:09:36.940Z,12.07
2023-06-16T06:11:22.102Z,11.27
2023-06-16T06:13:12.348Z,10.65
2023-06-16T06:14:54.456Z,10.08
2023-06-16T06:16:30.707Z,9.52
2023-06-16T06:17:56.950Z,9.96
2023-06-16T06:19:42.494Z,10.12
2023-06-16T06:21:09.040Z,11.17
2023-06-16T06:22:48.114Z,10.74
2023-06-16T06:24:34.400Z,11.49
2023-06-16T06:26:07.856Z,10.81
2023-06-16T06:27:41.487Z,11.57
2023-06-16T06:29:17.717Z,11.91
2023-06-16T06:31:04.245Z,12.07
2023-06-16T06:32:46.003Z,12.67
2023-06-16T06:34:17.869Z,10.72
2023-06-16T06:35:47.217Z,11.32
2023-06-16T06:37:33.217Z,10.81
2023-06-16T06:39:04.297Z,12.01
2023-06-16T06:40:37.643Z,11.61
2023-06-16T06:42:18.774Z,10.63
2023-06-16T06:43:46.357Z,10.78
2023-06-16T06:45:12.613Z,10.41
2023-06-16T06:46:53.524Z,10.78
2023-06-16T06:48:39.989Z,11.42
2023-06-16T06:50:14.942Z,10.49
2023-06-16T06:51:56.030Z,11.37
2023-06-16T06:53:29.200Z,11.28
2023-06-16T06:54:51.120Z,10.95
2023-06-16T06:56:15.791Z,11.84
2023-06-16T06:57:45.630Z,11.82
2023-06-16T06:59:14.940Z,11.23
2023-06-16T07:00:50.643Z,11.95
2023-06-16T07:02:26.752Z,12.13
2023-06-16T07:04:21.366Z,10.85
2023-06-16T07:05:50.425Z,11.45
2023-06-16T07:07:25.970Z,11.39
2023-06-16T07:09:03.380Z,11.46
2023-06-16T07:10:33.161Z,11.53
2023-06-16T07:12:26.843Z,11.96
2023-06-16T07:14:11.696Z,11.18
2023-06-16T07:15:52.763Z,11.53
2023-06-16T07:17:43.563Z,10.93
2023-06-16T07:19:16.881Z,10.29
2023-06-16T07:20:52.612Z,9.84
2023-06-16T07:22:34.745Z,10.00
2023-06-16T07:24:08.431Z,9.90
2023-06-16T07:25:45.250Z,10.09
2023-06-16T07:27:07.410Z,9.79
2023-06-16T07:28:31.553Z,10.76
2023-06-16T07:30:04.671Z,10.30
2023-06-16T07:31:28.752Z,10.66
2023-06-16T07:33:09.906Z,9.97
2023-06-16T07:34:46.251Z,10.60
2023-06-16T07:36:19.798Z,10.30
2023-06-16T07:37:53.371Z,10.90
2023-06-16T07:39:26.856Z,12.27
2023-06-16T07:41:21.395Z,11.85
2023-06-16T07:43:06.084Z,11.82
2023-06-16T07:44:51.014Z,12.60
2023-06-16T07:46:18.255Z,10.66
2023-06-16T07:47:47.350Z,10.94
2023-06-16T07:49:11.405Z,11.58
2023-06-16T07:50:35.864Z,12.09
2023-06-16T07:52:17.942Z,12.10
2023-06-16T07:53:44.244Z,11.90
2023-06-16T07:55:15.790Z,12.32
2023-06-16T07:57:09.352Z,12.07
2023-06-16T07:59:04.387Z,12.60
2023-06-16T08:00:45.176Z,11.31
2023-06-16T08:02:09.214Z,11.17
2023-06-16T08:03:50.258Z,11.76
2023-06-16T08:05:17.530Z,11.86
2023-06-16T08:07:02.488Z,11.68
2023-06-16T08:08:43.023Z,12.13
2023-06-16T08:10:32.306Z,12.29
2023-06-16T08:14:24.633Z,12.27
2023-06-16T08:16:09.497Z,11.87
2023-06-16T08:17:45.650Z,10.51
2023-06-16T08:19:31.231Z,11.05
2023-06-16T08:21:08.119Z,10.26
2023-06-16T08:22:33.399Z,10.95
2023-06-16T08:24:18.903Z,11.07
2023-06-16T08:26:03.474Z,10.64
2023-06-16T08:27:39.042Z,9.37
2023-06-16T08:29:24.873Z,8.40
2023-06-16T08:31:05.610Z,7.27
2023-06-16T08:32:47.034Z,7.98
2023-06-16T08:34:15.767Z,7.64
2023-06-16T08:36:01.576Z,8.46
2023-06-16T08:37:42.074Z,8.26
2023-06-16T08:39:06.599Z,7.28
2023-06-16T08:40:28.322Z,8.16
2023-06-16T08:42:01.868Z,8.48
2023-06-16T08:43:37.643Z,8.74
2023-06-16T08:45:13.734Z,8.24
2023-06-16T08:46:38.067Z,7.80
2023-06-16T08:48:20.011Z,8.13
2023-06-16T08:49:55.844Z,9.40
2023-06-16T08:51:29.488Z,9.41
2023-06-16T08:53:18.639Z,9.55
2023-06-16T08:55:00.423Z,10.00
2023-06-16T08:56:30.272Z,8.45
2023-06-16T08:57:59.345Z,8.12
2023-06-16T08:59:35.558Z,8.70
2023-06-16T09:01:11.023Z,8.34
2023-06-16T09:03:01.562Z,8.50
2023-06-16T09:04:42.412Z,8.64
2023-06-16T09:06:28.104Z,8.64
2023-06-16T09:08:04.800Z,9.43
2023-06-16T09:09:50.636Z,8.57
2023-06-16T09:11:36.089Z,7.46
2023-06-16T09:13:11.530Z,7.02
2023-06-16T09:15:01.360Z,6.46
2023-06-16T09:16:42.258Z,6.07
2023-06-16T09:18:27.931Z,7.14
2023-06-16T09:20:01.251Z,7.62
2023-06-16T09:21:43.566Z,7.22
2023-06-16T09:23:19.760Z,7.04
2023-06-16T09:25:14.394Z,6.72
2023-06-16T09:26:59.766Z,6.58
2023-06-16T09:28:33.765Z,6.26
2023-06-16T09:30:02.931Z,6.35
2023-06-16T09:31:47.921Z,6.07
2023-06-16T09:33:10.306Z,6.06
2023-06-16T09:34:49.849Z,7.55
2023-06-16T09:36:35.127Z,8.39
2023-06-16T09:37:57.778Z,9.75
